createdAt,value
2022-11-12T00:00:47.641Z,22.80
2022-11-12T00:03:15.554Z,22.81
2022-11-12T00:05:43.407Z,22.81
2022-11-12T00:08:12.863Z,22.80
2022-11-12T00:10:40.858Z,22.81
2022-11-12T00:13:08.770Z,22.81
2022-11-12T00:15:36.704Z,22.81
2022-11-12T00:18:04.763Z,22.81
2022-11-12T00:20:32.702Z,22.83
2022-11-12T00:23:00.652Z,22.81
2022-11-12T00:25:29.936Z,22.80
2022-11-12T00:28:02.600Z,22.81
2022-11-12T00:30:31.058Z,22.81
2022-11-12T00:32:59.441Z,22.81
2022-11-12T00:35:27.356Z,22.82
2022-11-12T00:37:56.759Z,22.83
2022-11-12T00:40:25.208Z,22.84
2022-11-12T00:42:54.583Z,22.85
2022-11-12T00:45:22.508Z,22.85
2022-11-12T00:47:50.396Z,22.86
2022-11-12T00:50:18.346Z,22.86
2022-11-12T00:52:46.319Z,22.86
2022-11-12T00:55:14.268Z,22.86
2022-11-12T00:57:42.189Z,22.86
2022-11-12T01:00:16.516Z,22.87
2022-11-12T01:02:50.484Z,22.87
2022-11-12T01:05:18.937Z,22.86
2022-11-12T01:07:49.409Z,22.86
2022-11-12T01:10:21.166Z,22.88
2022-11-12T01:12:49.214Z,22.87
2022-11-12T01:15:20.031Z,22.87
2022-11-12T01:17:47.944Z,22.86
2022-11-12T01:20:15.897Z,22.87
2022-11-12T01:22:43.795Z,22.87
2022-11-12T01:25:11.751Z,22.86
2022-11-12T01:27:39.639Z,22.87
2022-11-12T01:30:08.515Z,22.87
2022-11-12T01:32:38.182Z,22.87
2022-11-12T01:35:06.761Z,22.87
2022-11-12T01:37:43.476Z,22.87
2022-11-12T01:40:12.307Z,22.88
2022-11-12T01:42:40.226Z,22.88
2022-11-12T01:45:15.932Z,22.89
2022-11-12T01:47:45.345Z,22.90
2022-11-12T01:50:16.843Z,22.90
2022-11-12T01:52:46.184Z,22.89
2022-11-12T01:55:14.988Z,22.89
2022-11-12T01:57:44.004Z,22.90
2022-11-12T02:00:13.160Z,22.90
2022-11-12T02:02:41.210Z,22.90
2022-11-12T02:05:11.536Z,22.89
2022-11-12T02:07:40.726Z,22.90
2022-11-12T02:10:09.665Z,22.89
2022-11-12T02:12:54.938Z,22.88
2022-11-12T02:15:22.871Z,22.89
2022-11-12T02:17:50.811Z,22.89
2022-11-12T02:20:20.086Z,22.89
2022-11-12T02:22:49.369Z,22.90
2022-11-12T02:25:19.019Z,22.89
2022-11-12T02:27:46.899Z,22.89
2022-11-12T02:30:14.847Z,22.89
2022-11-12T02:32:42.810Z,22.89
2022-11-12T02:35:10.916Z,22.89
2022-11-12T02:37:38.829Z,22.90
2022-11-12T02:40:09.839Z,22.91
2022-11-12T02:42:37.711Z,22.89
2022-11-12T02:45:06.703Z,22.91
2022-11-12T02:47:34.674Z,22.92
2022-11-12T02:50:02.558Z,22.92
2022-11-12T02:52:30.469Z,22.94
2022-11-12T02:54:58.698Z,22.93
2022-11-12T02:57:29.830Z,22.92
2022-11-12T02:59:57.749Z,22.93
2022-11-12T03:02:25.603Z,22.92
2022-11-12T03:04:54.014Z,22.92
2022-11-12T03:07:21.862Z,22.91
2022-11-12T03:09:49.733Z,22.91
2022-11-12T03:12:17.640Z,22.93
2022-11-12T03:14:46.927Z,22.92
2022-11-12T03:17:14.791Z,22.91
2022-11-12T03:19:42.686Z,22.91
2022-11-12T03:22:10.535Z,22.91
2022-11-12T03:24:38.440Z,22.91
2022-11-12T03:27:06.320Z,22.92
2022-11-12T03:29:34.209Z,22.92
2022-11-12T03:32:03.525Z,22.92
2022-11-12T03:34:31.479Z,22.90
2022-11-12T03:36:59.364Z,22.92
2022-11-12T03:39:27.299Z,22.92
2022-11-12T03:41:55.241Z,22.94
2022-11-12T03:44:23.250Z,22.94
2022-11-12T03:46:51.181Z,22.94
2022-11-12T03:49:20.523Z,22.94
2022-11-12T03:51:48.491Z,22.95
2022-11-12T03:54:16.368Z,22.95
2022-11-12T03:56:44.336Z,22.94
2022-11-12T03:59:12.317Z,22.94
2022-11-12T04:01:40.298Z,22.94
2022-11-12T04:04:08.282Z,22.95
2022-11-12T04:06:54.971Z,22.95
2022-11-12T04:09:22.906Z,22.94
2022-11-12T04:11:50.810Z,22.94
2022-11-12T04:14:17.716Z,22.93
2022-11-12T04:17:03.255Z,22.92
2022-11-12T04:19:48.694Z,22.92
2022-11-12T04:22:18.038Z,22.92
2022-11-12T04:25:03.352Z,22.92
2022-11-12T04:27:32.374Z,22.93
2022-11-12T04:30:26.258Z,22.91
2022-11-12T04:32:55.427Z,22.91
2022-11-12T04:35:23.607Z,22.91
2022-11-12T04:37:52.939Z,22.92
2022-11-12T04:40:39.227Z,22.91
2022-11-12T04:43:25.758Z,22.91
2022-11-12T04:45:54.129Z,22.93
2022-11-12T04:48:22.166Z,22.93
2022-11-12T04:50:51.783Z,22.94
2022-11-12T04:53:23.868Z,22.93
2022-11-12T04:55:51.958Z,22.94
2022-11-12T04:58:20.266Z,22.93
2022-11-12T05:00:48.346Z,22.94
2022-11-12T05:03:16.251Z,22.92
2022-11-12T05:05:44.334Z,22.93
2022-11-12T05:08:12.287Z,22.94
2022-11-12T05:10:41.573Z,22.93
2022-11-12T05:13:09.424Z,22.93
2022-11-12T05:15:38.446Z,22.93
2022-11-12T05:18:06.403Z,22.92
2022-11-12T05:20:34.327Z,22.93
2022-11-12T05:23:07.170Z,22.92
2022-11-12T05:25:36.086Z,22.91
2022-11-12T05:28:07.043Z,22.91
2022-11-12T05:30:35.611Z,22.91
2022-11-12T05:33:04.946Z,22.92
2022-11-12T05:35:32.852Z,22.91
2022-11-12T05:38:00.935Z,22.92
2022-11-12T05:40:29.308Z,22.90
2022-11-12T05:42:57.153Z,22.93
2022-11-12T05:45:26.483Z,22.91
2022-11-12T05:47:54.397Z,22.92
2022-11-12T05:50:22.298Z,22.92
2022-11-12T05:52:50.204Z,22.91
2022-11-12T05:55:18.236Z,22.92
2022-11-12T05:57:46.143Z,22.91
2022-11-12T06:00:15.026Z,22.91
2022-11-12T06:02:44.360Z,22.93
2022-11-12T06:05:12.318Z,22.92
2022-11-12T06:07:40.806Z,22.92
2022-11-12T06:10:09.707Z,22.91
2022-11-12T06:12:37.603Z,22.93
2022-11-12T06:15:06.248Z,22.93
2022-11-12T06:17:34.222Z,22.93
2022-11-12T06:20:03.558Z,22.94
2022-11-12T06:22:31.401Z,22.94
2022-11-12T06:24:59.328Z,22.94
2022-11-12T06:27:27.284Z,22.96
2022-11-12T06:29:55.209Z,22.96
2022-11-12T06:32:23.156Z,22.97
2022-11-12T06:34:52.778Z,22.98
2022-11-12T06:37:22.295Z,22.99
2022-11-12T06:39:50.253Z,22.99
2022-11-12T06:42:18.149Z,22.98
2022-11-12T06:44:46.063Z,22.99
2022-11-12T06:47:13.931Z,22.98
2022-11-12T06:49:41.855Z,22.99
2022-11-12T06:52:13.711Z,23.00
2022-11-12T06:54:45.473Z,23.00
2022-11-12T06:57:13.449Z,23.00
2022-11-12T06:59:41.353Z,22.98
2022-11-12T07:02:09.314Z,23.00
2022-11-12T07:04:37.243Z,23.01
2022-11-12T07:07:10.270Z,23.02
2022-11-12T07:09:38.678Z,23.04
2022-11-12T07:12:10.816Z,23.06
2022-11-12T07:14:38.707Z,23.07
2022-11-12T07:17:06.622Z,23.07
2022-11-12T07:19:34.574Z,23.10
2022-11-12T07:22:02.730Z,23.12
2022-11-12T07:24:31.062Z,23.13
2022-11-12T07:26:58.975Z,23.15
2022-11-12T07:29:46.378Z,23.17
2022-11-12T07:32:15.584Z,23.19
2022-11-12T07:34:43.870Z,23.21
2022-11-12T07:37:11.717Z,23.22
2022-11-12T07:39:39.598Z,23.24
2022-11-12T07:42:07.472Z,23.26
2022-11-12T07:44:36.769Z,23.28
2022-11-12T07:47:04.715Z,23.30
2022-11-12T07:49:32.655Z,23.31
2022-11-12T07:52:00.564Z,23.33
2022-11-12T07:54:28.889Z,23.34
2022-11-12T07:56:56.814Z,23.36
2022-11-12T07:59:24.735Z,23.37
2022-11-12T08:01:54.094Z,23.37
2022-11-12T08:04:21.999Z,23.35
2022-11-12T08:06:50.453Z,23.36
2022-11-12T08:09:18.450Z,23.35
2022-11-12T08:11:46.386Z,23.33
2022-11-12T08:14:14.855Z,23.32
2022-11-12T08:16:42.787Z,23.34
2022-11-12T08:19:12.125Z,23.36
2022-11-12T08:21:40.039Z,23.32
2022-11-12T08:24:08.521Z,23.32
2022-11-12T08:26:36.452Z,23.33
2022-11-12T08:29:08.330Z,23.31
2022-11-12T08:31:36.672Z,23.30
2022-11-12T08:34:12.517Z,23.34
2022-11-12T08:36:43.021Z,23.36
2022-11-12T08:39:12.426Z,23.35
2022-11-12T08:41:40.377Z,23.37
2022-11-12T08:44:08.877Z,23.38
2022-11-12T08:46:36.956Z,23.37
2022-11-12T08:49:05.039Z,23.38
2022-11-12T08:51:33.009Z,23.38
2022-11-12T08:54:15.068Z,23.37
2022-11-12T08:56:43.144Z,23.39
2022-11-12T08:59:11.118Z,23.41
2022-11-12T09:01:39.121Z,23.39
2022-11-12T09:04:07.086Z,23.43
2022-11-12T09:06:35.069Z,23.43
2022-11-12T09:09:03.234Z,23.44
2022-11-12T09:11:32.530Z,23.45
2022-11-12T09:14:00.856Z,23.47
2022-11-12T09:16:28.767Z,23.50
2022-11-12T09:18:56.662Z,23.53
2022-11-12T09:21:24.925Z,23.55
2022-11-12T09:23:52.936Z,23.57
2022-11-12T09:26:20.979Z,23.57
2022-11-12T09:28:52.470Z,23.60
2022-11-12T09:31:20.508Z,23.61
2022-11-12T09:33:48.539Z,23.60
2022-11-12T09:36:17.769Z,23.60
2022-11-12T09:38:45.650Z,23.62
2022-11-12T09:41:21.292Z,23.62
2022-11-12T09:43:51.843Z,23.62
2022-11-12T09:46:28.669Z,23.64
2022-11-12T09:49:01.643Z,23.66
2022-11-12T09:51:30.839Z,23.64
2022-11-12T09:53:59.526Z,23.67
2022-11-12T09:56:28.250Z,23.69
2022-11-12T09:58:57.596Z,23.72
2022-11-12T10:01:32.057Z,23.73
2022-11-12T10:04:04.713Z,23.75
2022-11-12T10:06:35.966Z,23.77
2022-11-12T10:12:14.974Z,23.83
2022-11-12T10:14:56.547Z,23.85
2022-11-12T10:17:29.523Z,23.88
2022-11-12T10:20:02.612Z,23.87
2022-11-12T10:22:38.499Z,23.89
2022-11-12T10:25:15.316Z,23.89
2022-11-12T10:27:43.660Z,23.87
2022-11-12T10:30:18.010Z,23.87
2022-11-12T10:32:46.196Z,23.86
2022-11-12T10:35:16.206Z,23.88
2022-11-12T10:37:46.885Z,23.88
2022-11-12T10:40:34.733Z,23.91
2022-11-12T10:43:03.466Z,23.92
2022-11-12T10:45:33.092Z,23.94
2022-11-12T10:48:01.006Z,23.96
2022-11-12T10:50:31.222Z,23.96
2022-11-12T10:53:01.025Z,23.97
2022-11-12T10:55:30.376Z,24.00
2022-11-12T10:58:09.012Z,24.00
2022-11-12T11:00:38.617Z,24.00
2022-11-12T11:03:08.261Z,24.01
2022-11-12T11:05:39.473Z,24.01
2022-11-12T11:08:07.416Z,24.01
2022-11-12T11:10:36.217Z,24.02
2022-11-12T11:13:20.574Z,24.04
2022-11-12T11:16:12.333Z,24.06
2022-11-12T11:18:40.355Z,24.08
2022-11-12T11:21:17.472Z,24.08
2022-11-12T11:23:48.176Z,24.09
2022-11-12T11:26:25.444Z,24.08
2022-11-12T11:28:56.655Z,24.09
2022-11-12T11:31:30.336Z,24.10
2022-11-12T11:34:10.870Z,24.11
2022-11-12T11:36:41.494Z,24.10
2022-11-12T11:39:15.628Z,24.08
2022-11-12T11:41:50.029Z,24.03
2022-11-12T11:44:23.252Z,24.05
2022-11-12T11:46:59.672Z,24.07
2022-11-12T11:50:08.774Z,24.08
2022-11-12T11:52:46.871Z,24.03
2022-11-12T11:55:48.032Z,23.99
2022-11-12T11:58:24.905Z,23.97
2022-11-12T12:00:56.473Z,23.92
2022-11-12T12:03:31.767Z,23.94
2022-11-12T12:06:16.074Z,23.96
2022-11-12T12:08:53.087Z,23.96
2022-11-12T12:11:22.584Z,23.96
2022-11-12T12:14:00.831Z,23.99
2022-11-12T12:16:34.783Z,23.98
2022-11-12T12:19:07.656Z,23.98
2022-11-12T12:21:36.571Z,23.99
2022-11-12T12:24:06.330Z,23.97
2022-11-12T12:26:37.937Z,23.96
2022-11-12T12:29:08.264Z,23.94
2022-11-12T12:31:38.484Z,23.89
2022-11-12T12:34:11.460Z,23.87
2022-11-12T12:36:40.141Z,23.85
2022-11-12T12:39:14.973Z,23.83
2022-11-12T12:41:47.471Z,23.81
2022-11-12T12:44:15.444Z,23.80
2022-11-12T12:46:45.340Z,23.81
2022-11-12T12:49:17.825Z,23.81
2022-11-12T12:51:46.152Z,23.83
2022-11-12T12:54:58.199Z,23.83
2022-11-12T12:57:34.095Z,23.83
2022-11-12T13:00:28.147Z,23.83
2022-11-12T13:02:56.145Z,23.84
2022-11-12T13:05:36.149Z,23.81
2022-11-12T13:08:05.630Z,23.79
2022-11-12T13:10:48.069Z,23.79
2022-11-12T13:13:32.499Z,23.78
2022-11-12T13:16:01.616Z,23.76
2022-11-12T13:18:57.721Z,23.74
2022-11-12T13:21:27.155Z,23.72
2022-11-12T13:24:08.253Z,23.69
2022-11-12T13:26:50.483Z,23.69
2022-11-12T13:29:42.376Z,23.71
2022-11-12T13:32:35.202Z,23.73
2022-11-12T13:35:32.935Z,23.73
2022-11-12T13:38:03.454Z,23.69
2022-11-12T13:40:43.646Z,23.66
2022-11-12T13:43:18.962Z,23.65
2022-11-12T13:45:49.200Z,23.67
2022-11-12T13:48:19.316Z,23.66
2022-11-12T13:50:51.610Z,23.67
2022-11-12T13:53:23.382Z,23.67
2022-11-12T13:55:51.728Z,23.67
2022-11-12T13:58:28.329Z,23.68
2022-11-12T14:00:56.944Z,23.66
2022-11-12T14:03:25.774Z,23.65
2022-11-12T14:05:53.747Z,23.63
2022-11-12T14:08:33.374Z,23.61
2022-11-12T14:11:08.968Z,23.58
2022-11-12T14:13:44.962Z,23.56
2022-11-12T14:16:25.115Z,23.54
2022-11-12T14:19:14.420Z,23.52
2022-11-12T14:21:42.346Z,23.49
2022-11-12T14:24:12.176Z,23.49
2022-11-12T14:26:40.833Z,23.47
2022-11-12T14:29:08.931Z,23.45
2022-11-12T14:31:36.870Z,23.43
2022-11-12T14:34:22.889Z,23.42
2022-11-12T14:36:52.747Z,23.40
2022-11-12T14:39:22.117Z,23.38
2022-11-12T14:41:51.028Z,23.37
2022-11-12T14:44:20.652Z,23.36
2022-11-12T14:46:49.301Z,23.35
2022-11-12T14:49:20.762Z,23.33
2022-11-12T14:51:49.379Z,23.33
2022-11-12T14:54:35.555Z,23.33
2022-11-12T14:57:05.036Z,23.31
2022-11-12T14:59:33.112Z,23.30
2022-11-12T15:02:29.536Z,23.29
2022-11-12T15:04:55.905Z,23.27
2022-11-12T15:07:25.416Z,23.27
2022-11-12T15:09:53.407Z,23.24
2022-11-12T15:12:24.075Z,23.24
2022-11-12T15:14:52.355Z,23.21
2022-11-12T15:17:28.803Z,23.19
2022-11-12T15:20:02.058Z,23.19
2022-11-12T15:22:31.163Z,23.16
2022-11-12T15:25:11.141Z,23.15
2022-11-12T15:27:41.574Z,23.14
2022-11-12T15:30:16.106Z,23.15
2022-11-12T15:32:44.831Z,23.13
2022-11-12T15:35:35.022Z,23.11
2022-11-12T15:38:03.718Z,23.10
2022-11-12T15:40:31.660Z,23.09
2022-11-12T15:43:01.325Z,23.09
2022-11-12T15:45:29.275Z,23.08
2022-11-12T15:47:57.215Z,23.07
2022-11-12T15:50:25.562Z,23.06
2022-11-12T15:52:53.524Z,23.07
2022-11-12T15:55:21.550Z,23.06
2022-11-12T15:57:52.432Z,23.06
2022-11-12T16:00:22.774Z,23.03
2022-11-12T16:02:56.329Z,23.02
2022-11-12T16:05:24.336Z,23.01
2022-11-12T16:07:52.450Z,23.00
2022-11-12T16:10:20.440Z,22.98
2022-11-12T16:12:48.679Z,22.98
2022-11-12T16:15:18.372Z,22.96
2022-11-12T16:17:48.010Z,22.96
2022-11-12T16:20:17.107Z,22.96
2022-11-12T16:22:45.535Z,22.94
2022-11-12T16:25:30.147Z,22.94
2022-11-12T16:28:00.216Z,22.92
2022-11-12T16:30:29.048Z,22.91
2022-11-12T16:33:00.094Z,22.90
2022-11-12T16:35:28.420Z,22.89
2022-11-12T16:37:56.513Z,22.89
2022-11-12T16:40:33.560Z,22.88
2022-11-12T16:43:01.934Z,22.87
2022-11-12T16:45:33.680Z,22.86
2022-11-12T16:48:03.259Z,22.86
2022-11-12T16:50:31.225Z,22.87
2022-11-12T16:53:00.119Z,22.87
2022-11-12T16:55:28.143Z,22.86
2022-11-12T16:57:56.225Z,22.85
2022-11-12T17:00:24.415Z,22.85
2022-11-12T17:02:53.634Z,22.85
2022-11-12T17:05:24.283Z,22.83
2022-11-12T17:07:56.471Z,22.81
2022-11-12T17:10:25.332Z,22.82
2022-11-12T17:12:53.723Z,22.80
2022-11-12T17:15:21.821Z,22.79
2022-11-12T17:17:50.200Z,22.77
2022-11-12T17:20:18.127Z,22.76
2022-11-12T17:22:47.906Z,22.76
2022-11-12T17:25:16.246Z,22.75
2022-11-12T17:27:45.132Z,22.75
2022-11-12T17:30:16.404Z,22.73
2022-11-12T17:32:44.928Z,22.72
2022-11-12T17:35:12.917Z,22.71
2022-11-12T17:37:40.909Z,22.70
2022-11-12T17:40:11.469Z,22.69
2022-11-12T17:42:39.680Z,22.68
2022-11-12T17:45:08.724Z,22.69
2022-11-12T17:47:40.454Z,22.69
2022-11-12T17:50:09.908Z,22.68
2022-11-12T17:52:38.185Z,22.69
2022-11-12T17:55:06.903Z,22.68
2022-11-12T17:57:36.286Z,22.68
2022-11-12T18:00:07.326Z,22.68
2022-11-12T18:02:35.606Z,22.63
2022-11-12T18:05:04.020Z,22.65
2022-11-12T18:07:31.972Z,22.66
2022-11-12T18:10:01.910Z,22.63
2022-11-12T18:12:29.892Z,22.63
2022-11-12T18:15:00.121Z,22.60
2022-11-12T18:17:28.082Z,22.59
2022-11-12T18:19:56.109Z,22.58
2022-11-12T18:22:24.064Z,22.57
2022-11-12T18:24:53.247Z,22.55
2022-11-12T18:27:21.223Z,22.55
2022-11-12T18:29:50.774Z,22.55
2022-11-12T18:32:20.697Z,22.55
2022-11-12T18:34:48.957Z,22.53
2022-11-12T18:37:16.947Z,22.52
2022-11-12T18:39:45.375Z,22.52
2022-11-12T18:42:13.333Z,22.52
2022-11-12T18:44:41.881Z,22.52
2022-11-12T18:47:09.857Z,22.53
2022-11-12T18:49:39.544Z,22.53
2022-11-12T18:52:07.600Z,22.54
2022-11-12T18:54:35.816Z,22.55
2022-11-12T18:57:03.807Z,22.54
2022-11-12T18:59:32.965Z,22.54
2022-11-12T19:02:00.951Z,22.55
2022-11-12T19:04:30.201Z,22.56
2022-11-12T19:06:59.685Z,22.57
2022-11-12T19:09:29.753Z,22.56
2022-11-12T19:11:57.681Z,22.56
2022-11-12T19:14:25.999Z,22.53
2022-11-12T19:16:54.356Z,22.56
2022-11-12T19:19:22.485Z,22.55
2022-11-12T19:21:50.472Z,22.54
2022-11-12T19:24:20.641Z,22.54
2022-11-12T19:26:48.964Z,22.54
2022-11-12T19:29:17.621Z,22.55
2022-11-12T19:31:46.044Z,22.55
2022-11-12T19:34:15.551Z,22.55
2022-11-12T19:36:43.512Z,22.54
2022-11-12T19:39:11.577Z,22.54
2022-11-12T19:41:40.895Z,22.54
2022-11-12T19:44:09.155Z,22.54
2022-11-12T19:46:37.495Z,22.54
2022-11-12T19:49:05.814Z,22.54
2022-11-12T19:51:33.773Z,22.55
2022-11-12T19:54:01.753Z,22.55
2022-11-12T19:56:31.128Z,22.53
2022-11-12T19:59:00.548Z,22.53
2022-11-12T20:01:29.697Z,22.53
2022-11-12T20:03:57.735Z,22.53
2022-11-12T20:06:27.414Z,22.54
2022-11-12T20:08:55.417Z,22.53
2022-11-12T20:11:25.650Z,22.54
2022-11-12T20:13:53.726Z,22.53
2022-11-12T20:16:25.586Z,22.52
2022-11-12T20:18:55.038Z,22.52
2022-11-12T20:21:23.376Z,22.51
2022-11-12T20:23:51.352Z,22.51
2022-11-12T20:26:20.069Z,22.50
2022-11-12T20:28:48.779Z,22.50
2022-11-12T20:31:20.631Z,22.50
2022-11-12T20:33:50.376Z,22.49
2022-11-12T20:36:19.743Z,22.47
2022-11-12T20:38:49.918Z,22.48
2022-11-12T20:41:19.193Z,22.46
2022-11-12T20:43:47.212Z,22.46
2022-11-12T20:46:17.494Z,22.46
2022-11-12T20:48:45.514Z,22.45
2022-11-12T20:51:23.868Z,22.42
2022-11-12T20:53:58.919Z,22.44
2022-11-12T20:56:29.375Z,22.43
2022-11-12T20:58:57.566Z,22.43
2022-11-12T21:01:26.498Z,22.42
2022-11-12T21:03:54.935Z,22.42
2022-11-12T21:06:25.295Z,22.42
2022-11-12T21:08:53.474Z,22.40
2022-11-12T21:11:23.081Z,22.39
2022-11-12T21:16:19.163Z,22.37
2022-11-12T21:18:47.127Z,22.39
2022-11-12T21:21:16.402Z,22.39
2022-11-12T21:23:45.984Z,22.38
2022-11-12T21:26:16.516Z,22.38
2022-11-12T21:28:44.663Z,22.37
2022-11-12T21:31:15.371Z,22.38
2022-11-12T21:33:43.354Z,22.39
2022-11-12T21:36:16.407Z,22.39
2022-11-12T21:38:46.190Z,22.39
2022-11-12T21:41:17.448Z,22.39
2022-11-12T21:43:46.853Z,22.37
2022-11-12T21:46:16.701Z,22.37
2022-11-12T21:48:44.713Z,22.38
2022-11-12T21:51:15.015Z,22.35
2022-11-12T21:53:43.476Z,22.36
2022-11-12T21:56:14.959Z,22.34
2022-11-12T21:58:43.353Z,22.36
2022-11-12T22:01:12.659Z,22.34
2022-11-12T22:03:40.717Z,22.33
2022-11-12T22:06:09.643Z,22.33
2022-11-12T22:08:37.574Z,22.31
2022-11-12T22:11:07.488Z,22.30
2022-11-12T22:13:36.873Z,22.30
2022-11-12T22:16:09.023Z,22.28
2022-11-12T22:18:37.036Z,22.27
2022-11-12T22:21:06.028Z,22.27
2022-11-12T22:23:36.509Z,22.24
2022-11-12T22:26:04.740Z,22.23
2022-11-12T22:28:34.235Z,22.21
2022-11-12T22:31:07.733Z,22.20
2022-11-12T22:33:36.337Z,22.19
2022-11-12T22:36:04.444Z,22.17
2022-11-12T22:38:36.305Z,22.15
2022-11-12T22:41:05.313Z,22.15
2022-11-12T22:43:34.023Z,22.14
2022-11-12T22:46:21.704Z,22.15
2022-11-12T22:48:52.105Z,22.15
2022-11-12T22:51:20.834Z,22.16
2022-11-12T22:53:49.039Z,22.16
2022-11-12T22:56:17.529Z,22.16
2022-11-12T22:58:46.461Z,22.17
2022-11-12T23:01:20.655Z,22.19
2022-11-12T23:03:48.701Z,22.21
2022-11-12T23:06:16.769Z,22.23
2022-11-12T23:08:45.135Z,22.23
2022-11-12T23:11:14.363Z,22.24
2022-11-12T23:13:42.372Z,22.25
2022-11-12T23:16:11.312Z,22.27
2022-11-12T23:18:40.757Z,22.27
2022-11-12T23:21:09.508Z,22.28
2022-11-12T23:23:37.432Z,22.30
2022-11-12T23:26:05.847Z,22.29
2022-11-12T23:28:34.738Z,22.30
2022-11-12T23:31:03.519Z,22.31
2022-11-12T23:33:32.668Z,22.32
2022-11-12T23:36:09.033Z,22.32
2022-11-12T23:38:37.104Z,22.33
2022-11-12T23:41:05.344Z,22.34
2022-11-12T23:43:33.361Z,22.35
2022-11-12T23:46:01.313Z,22.34
2022-11-12T23:48:31.253Z,22.35
2022-11-12T23:51:03.629Z,22.35
2022-11-12T23:53:33.931Z,22.34
2022-11-12T23:56:01.900Z,22.36
2022-11-12T23:58:30.493Z,22.37
